sensor_id;sensor_type;location;lat;lon;timestamp;P1;durP1;ratioP1;P2;durP2;ratioP2
26311;SDS011;14019;56.964;24.016;2023-02-28T00:01:26;4.15;;;1.80;;
26311;SDS011;14019;56.964;24.016;2023-02-28T00:04:14;6.07;;;1.83;;
26311;SDS011;14019;56.964;24.016;2023-02-28T00:07:02;4.30;;;1.70;;
26311;SDS011;14019;56.964;24.016;2023-02-28T00:09:53;7.18;;;2.08;;
26311;SDS011;14019;56.964;24.016;2023-02-28T00:12:59;4.28;;;1.70;;
26311;SDS011;14019;56.964;24.016;2023-02-28T00:15:47;4.10;;;1.38;;
26311;SDS011;14019;56.964;24.016;2023-02-28T00:18:48;4.25;;;1.42;;
26311;SDS011;14019;56.964;24.016;2023-02-28T00:21:40;2.85;;;1.45;;
26311;SDS011;14019;56.964;24.016;2023-02-28T00:24:28;4.55;;;1.90;;
26311;SDS011;14019;56.964;24.016;2023-02-28T00:27:21;5.95;;;1.90;;
26311;SDS011;14019;56.964;24.016;2023-02-28T00:30:13;8.27;;;2.00;;
26311;SDS011;14019;56.964;24.016;2023-02-28T00:33:03;3.92;;;1.67;;
26311;SDS011;14019;56.964;24.016;2023-02-28T00:36:04;4.68;;;1.90;;
26311;SDS011;14019;56.964;24.016;2023-02-28T00:38:53;4.07;;;1.60;;
26311;SDS011;14019;56.964;24.016;2023-02-28T00:41:45;4.55;;;1.58;;
26311;SDS011;14019;56.964;24.016;2023-02-28T00:44:39;4.80;;;1.55;;
26311;SDS011;14019;56.964;24.016;2023-02-28T00:47:39;4.68;;;1.70;;
26311;SDS011;14019;56.964;24.016;2023-02-28T00:50:37;6.05;;;1.90;;
26311;SDS011;14019;56.964;24.016;2023-02-28T00:53:29;3.55;;;1.73;;
26311;SDS011;14019;56.964;24.016;2023-02-28T00:56:20;4.07;;;1.85;;
26311;SDS011;14019;56.964;24.016;2023-02-28T00:59:10;5.00;;;1.63;;
26311;SDS011;14019;56.964;24.016;2023-02-28T01:02:02;5.85;;;1.70;;
26311;SDS011;14019;56.964;24.016;2023-02-28T01:04:51;3.38;;;1.40;;
26311;SDS011;14019;56.964;24.016;2023-02-28T01:07:39;5.53;;;1.80;;
26311;SDS011;14019;56.964;24.016;2023-02-28T01:10:41;5.47;;;1.70;;
26311;SDS011;14019;56.964;24.016;2023-02-28T01:13:30;3.25;;;1.48;;
26311;SDS011;14019;56.964;24.016;2023-02-28T01:16:17;2.63;;;1.50;;
26311;SDS011;14019;56.964;24.016;2023-02-28T01:19:26;3.55;;;1.80;;
26311;SDS011;14019;56.964;24.016;2023-02-28T01:22:17;4.60;;;1.58;;
26311;SDS011;14019;56.964;24.016;2023-02-28T01:25:08;5.53;;;1.83;;
26311;SDS011;14019;56.964;24.016;2023-02-28T01:30:48;7.85;;;1.67;;
26311;SDS011;14019;56.964;24.016;2023-02-28T01:33:44;4.18;;;1.73;;
26311;SDS011;14019;56.964;24.016;2023-02-28T01:36:31;4.60;;;1.80;;
26311;SDS011;14019;56.964;24.016;2023-02-28T01:39:19;6.88;;;1.95;;
26311;SDS011;14019;56.964;24.016;2023-02-28T01:42:08;4.63;;;2.00;;
26311;SDS011;14019;56.964;24.016;2023-02-28T01:45:05;4.63;;;1.55;;
26311;SDS011;14019;56.964;24.016;2023-02-28T01:48:02;6.00;;;1.50;;
26311;SDS011;14019;56.964;24.016;2023-02-28T01:51:01;5.95;;;1.88;;
26311;SDS011;14019;56.964;24.016;2023-02-28T01:54:02;4.35;;;1.27;;
26311;SDS011;14019;56.964;24.016;2023-02-28T01:56:54;4.32;;;1.70;;
26311;SDS011;14019;56.964;24.016;2023-02-28T02:03:08;6.57;;;1.90;;
26311;SDS011;14019;56.964;24.016;2023-02-28T02:05:55;7.70;;;2.13;;
26311;SDS011;14019;56.964;24.016;2023-02-28T02:08:42;5.50;;;2.08;;
26311;SDS011;14019;56.964;24.016;2023-02-28T02:11:32;7.00;;;2.20;;
26311;SDS011;14019;56.964;24.016;2023-02-28T02:36:27;7.78;;;2.00;;
26311;SDS011;14019;56.964;24.016;2023-02-28T02:39:24;8.00;;;2.17;;
26311;SDS011;14019;56.964;24.016;2023-02-28T02:45:49;5.57;;;1.90;;
26311;SDS011;14019;56.964;24.016;2023-02-28T02:48:40;5.82;;;1.67;;
26311;SDS011;14019;56.964;24.016;2023-02-28T02:51:31;8.60;;;1.60;;
26311;SDS011;14019;56.964;24.016;2023-02-28T02:54:20;5.07;;;1.58;;
26311;SDS011;14019;56.964;24.016;2023-02-28T02:57:14;4.47;;;1.38;;
26311;SDS011;14019;56.964;24.016;2023-02-28T03:00:21;4.40;;;1.70;;
26311;SDS011;14019;56.964;24.016;2023-02-28T03:03:33;5.97;;;1.30;;
26311;SDS011;14019;56.964;24.016;2023-02-28T03:06:27;7.47;;;1.70;;
26311;SDS011;14019;56.964;24.016;2023-02-28T03:09:32;3.35;;;1.17;;
26311;SDS011;14019;56.964;24.016;2023-02-28T03:12:23;3.78;;;1.40;;
26311;SDS011;14019;56.964;24.016;2023-02-28T03:15:35;2.67;;;1.30;;
26311;SDS011;14019;56.964;24.016;2023-02-28T03:18:41;5.63;;;1.58;;
26311;SDS011;14019;56.964;24.016;2023-02-28T03:34:31;4.97;;;1.60;;
26311;SDS011;14019;56.964;24.016;2023-02-28T03:37:28;5.57;;;1.58;;
26311;SDS011;14019;56.964;24.016;2023-02-28T03:40:17;5.10;;;1.45;;
26311;SDS011;14019;56.964;24.016;2023-02-28T03:43:10;8.50;;;2.08;;
26311;SDS011;14019;56.964;24.016;2023-02-28T03:46:14;7.47;;;2.13;;
26311;SDS011;14019;56.964;24.016;2023-02-28T03:49:17;7.30;;;1.95;;
26311;SDS011;14019;56.964;24.016;2023-02-28T03:52:22;8.75;;;2.20;;
26311;SDS011;14019;56.964;24.016;2023-02-28T03:55:16;8.68;;;2.33;;
26311;SDS011;14019;56.964;24.016;2023-02-28T04:01:11;6.45;;;1.95;;
26311;SDS011;14019;56.964;24.016;2023-02-28T04:04:09;7.15;;;2.38;;
26311;SDS011;14019;56.964;24.016;2023-02-28T04:07:06;8.25;;;1.95;;
26311;SDS011;14019;56.964;24.016;2023-02-28T04:10:08;7.57;;;2.42;;
26311;SDS011;14019;56.964;24.016;2023-02-28T04:13:00;5.35;;;2.25;;
26311;SDS011;14019;56.964;24.016;2023-02-28T04:15:53;9.15;;;3.20;;
26311;SDS011;14019;56.964;24.016;2023-02-28T04:18:45;7.50;;;2.40;;
26311;SDS011;14019;56.964;24.016;2023-02-28T04:21:32;7.28;;;2.00;;
26311;SDS011;14019;56.964;24.016;2023-02-28T04:27:11;9.25;;;2.17;;
26311;SDS011;14019;56.964;24.016;2023-02-28T04:33:10;6.60;;;2.38;;
26311;SDS011;14019;56.964;24.016;2023-02-28T04:36:05;7.32;;;2.28;;
26311;SDS011;14019;56.964;24.016;2023-02-28T04:38:52;7.15;;;2.10;;
26311;SDS011;14019;56.964;24.016;2023-02-28T04:41:39;5.88;;;2.00;;
26311;SDS011;14019;56.964;24.016;2023-02-28T04:44:26;6.45;;;1.88;;
26311;SDS011;14019;56.964;24.016;2023-02-28T04:47:13;6.30;;;2.00;;
26311;SDS011;14019;56.964;24.016;2023-02-28T04:50:00;4.82;;;1.80;;
26311;SDS011;14019;56.964;24.016;2023-02-28T04:52:47;5.47;;;2.28;;
26311;SDS011;14019;56.964;24.016;2023-02-28T04:55:33;6.10;;;1.98;;
26311;SDS011;14019;56.964;24.016;2023-02-28T04:58:20;9.32;;;3.70;;
26311;SDS011;14019;56.964;24.016;2023-02-28T05:04:08;6.82;;;2.40;;
26311;SDS011;14019;56.964;24.016;2023-02-28T05:06:55;5.72;;;2.50;;
26311;SDS011;14019;56.964;24.016;2023-02-28T05:09:41;4.65;;;2.55;;
26311;SDS011;14019;56.964;24.016;2023-02-28T05:12:28;5.88;;;2.83;;
26311;SDS011;14019;56.964;24.016;2023-02-28T05:15:15;6.32;;;3.05;;
26311;SDS011;14019;56.964;24.016;2023-02-28T05:18:01;6.00;;;2.92;;
26311;SDS011;14019;56.964;24.016;2023-02-28T05:20:48;6.00;;;3.13;;
26311;SDS011;14019;56.964;24.016;2023-02-28T05:23:35;5.65;;;3.10;;
26311;SDS011;14019;56.964;24.016;2023-02-28T05:26:21;7.70;;;3.38;;
26311;SDS011;14019;56.964;24.016;2023-02-28T05:29:09;10.05;;;3.40;;
26311;SDS011;14019;56.964;24.016;2023-02-28T05:31:56;7.00;;;3.20;;
26311;SDS011;14019;56.964;24.016;2023-02-28T05:34:43;7.03;;;3.10;;
26311;SDS011;14019;56.964;24.016;2023-02-28T05:37:29;6.38;;;3.10;;
26311;SDS011;14019;56.964;24.016;2023-02-28T05:40:16;9.48;;;3.58;;
26311;SDS011;14019;56.964;24.016;2023-02-28T05:43:04;8.00;;;3.60;;
26311;SDS011;14019;56.964;24.016;2023-02-28T05:45:51;6.80;;;3.67;;
26311;SDS011;14019;56.964;24.016;2023-02-28T05:48:37;9.75;;;3.90;;
26311;SDS011;14019;56.964;24.016;2023-02-28T05:51:24;11.48;;;3.53;;
26311;SDS011;14019;56.964;24.016;2023-02-28T05:54:11;12.32;;;3.63;;
26311;SDS011;14019;56.964;24.016;2023-02-28T05:56:58;10.98;;;3.80;;
26311;SDS011;14019;56.964;24.016;2023-02-28T05:59:44;9.90;;;4.10;;
26311;SDS011;14019;56.964;24.016;2023-02-28T06:02:31;7.20;;;3.22;;
26311;SDS011;14019;56.964;24.016;2023-02-28T06:05:17;10.52;;;3.58;;
26311;SDS011;14019;56.964;24.016;2023-02-28T06:08:04;7.63;;;3.50;;
26311;SDS011;14019;56.964;24.016;2023-02-28T06:10:53;8.52;;;3.60;;
26311;SDS011;14019;56.964;24.016;2023-02-28T06:13:39;10.02;;;3.78;;
26311;SDS011;14019;56.964;24.016;2023-02-28T06:16:26;10.35;;;3.78;;
26311;SDS011;14019;56.964;24.016;2023-02-28T06:19:14;8.80;;;3.92;;
26311;SDS011;14019;56.964;24.016;2023-02-28T06:22:01;6.93;;;3.67;;
26311;SDS011;14019;56.964;24.016;2023-02-28T06:24:47;10.30;;;4.10;;
26311;SDS011;14019;56.964;24.016;2023-02-28T06:27:34;7.18;;;3.80;;
26311;SDS011;14019;56.964;24.016;2023-02-28T06:30:21;14.85;;;3.92;;
26311;SDS011;14019;56.964;24.016;2023-02-28T06:33:10;10.05;;;4.25;;
26311;SDS011;14019;56.964;24.016;2023-02-28T06:35:56;9.63;;;3.75;;
26311;SDS011;14019;56.964;24.016;2023-02-28T06:38:43;9.63;;;3.90;;
26311;SDS011;14019;56.964;24.016;2023-02-28T06:41:30;11.65;;;4.07;;
26311;SDS011;14019;56.964;24.016;2023-02-28T06:44:36;9.27;;;4.05;;
26311;SDS011;14019;56.964;24.016;2023-02-28T06:47:23;8.32;;;4.03;;
26311;SDS011;14019;56.964;24.016;2023-02-28T06:50:10;13.23;;;4.28;;
26311;SDS011;14019;56.964;24.016;2023-02-28T06:52:57;10.38;;;3.90;;
26311;SDS011;14019;56.964;24.016;2023-02-28T06:55:44;6.88;;;3.63;;
26311;SDS011;14019;56.964;24.016;2023-02-28T06:58:31;9.63;;;4.45;;
26311;SDS011;14019;56.964;24.016;2023-02-28T07:01:17;9.23;;;4.15;;
26311;SDS011;14019;56.964;24.016;2023-02-28T07:04:04;9.43;;;3.90;;
26311;SDS011;14019;56.964;24.016;2023-02-28T07:06:51;7.35;;;3.72;;
26311;SDS011;14019;56.964;24.016;2023-02-28T07:09:37;9.30;;;3.90;;
26311;SDS011;14019;56.964;24.016;2023-02-28T07:12:24;7.55;;;3.60;;
26311;SDS011;14019;56.964;24.016;2023-02-28T07:15:10;7.63;;;3.42;;
26311;SDS011;14019;56.964;24.016;2023-02-28T07:17:57;8.80;;;3.58;;
26311;SDS011;14019;56.964;24.016;2023-02-28T07:20:44;7.60;;;3.40;;
26311;SDS011;14019;56.964;24.016;2023-02-28T07:23:30;6.35;;;3.10;;
26311;SDS011;14019;56.964;24.016;2023-02-28T07:26:18;6.80;;;3.00;;
26311;SDS011;14019;56.964;24.016;2023-02-28T07:29:05;7.10;;;3.25;;
26311;SDS011;14019;56.964;24.016;2023-02-28T07:31:51;7.53;;;3.58;;
26311;SDS011;14019;56.964;24.016;2023-02-28T07:34:38;7.47;;;3.33;;
26311;SDS011;14019;56.964;24.016;2023-02-28T07:37:25;7.15;;;3.03;;
26311;SDS011;14019;56.964;24.016;2023-02-28T07:40:11;8.32;;;2.88;;
26311;SDS011;14019;56.964;24.016;2023-02-28T07:42:58;6.60;;;3.03;;
26311;SDS011;14019;56.964;24.016;2023-02-28T07:45:45;8.60;;;3.13;;
26311;SDS011;14019;56.964;24.016;2023-02-28T07:48:33;7.50;;;3.00;;
26311;SDS011;14019;56.964;24.016;2023-02-28T07:51:20;6.13;;;2.65;;
26311;SDS011;14019;56.964;24.016;2023-02-28T07:54:06;5.40;;;2.55;;
26311;SDS011;14019;56.964;24.016;2023-02-28T07:56:52;5.95;;;2.42;;
26311;SDS011;14019;56.964;24.016;2023-02-28T07:59:40;3.92;;;2.25;;
26311;SDS011;14019;56.964;24.016;2023-02-28T08:02:29;6.07;;;2.70;;
26311;SDS011;14019;56.964;24.016;2023-02-28T08:05:16;7.03;;;2.42;;
26311;SDS011;14019;56.964;24.016;2023-02-28T08:08:06;7.75;;;2.63;;
26311;SDS011;14019;56.964;24.016;2023-02-28T08:10:53;5.00;;;2.67;;
26311;SDS011;14019;56.964;24.016;2023-02-28T08:13:41;7.00;;;2.60;;
26311;SDS011;14019;56.964;24.016;2023-02-28T08:16:29;4.72;;;2.20;;
26311;SDS011;14019;56.964;24.016;2023-02-28T08:19:15;4.38;;;2.08;;
26311;SDS011;14019;56.964;24.016;2023-02-28T08:22:01;6.03;;;2.08;;
26311;SDS011;14019;56.964;24.016;2023-02-28T08:24:48;5.15;;;1.92;;
26311;SDS011;14019;56.964;24.016;2023-02-28T08:27:35;3.47;;;2.15;;
26311;SDS011;14019;56.964;24.016;2023-02-28T08:30:22;5.40;;;2.10;;
26311;SDS011;14019;56.964;24.016;2023-02-28T08:33:09;4.95;;;2.10;;
26311;SDS011;14019;56.964;24.016;2023-02-28T08:35:56;6.32;;;2.03;;
26311;SDS011;14019;56.964;24.016;2023-02-28T08:38:42;6.15;;;2.30;;
26311;SDS011;14019;56.964;24.016;2023-02-28T08:41:28;6.85;;;2.22;;
26311;SDS011;14019;56.964;24.016;2023-02-28T08:44:15;4.82;;;2.15;;
26311;SDS011;14019;56.964;24.016;2023-02-28T08:47:01;4.82;;;1.80;;
26311;SDS011;14019;56.964;24.016;2023-02-28T08:49:47;3.00;;;1.80;;
26311;SDS011;14019;56.964;24.016;2023-02-28T08:52:33;5.43;;;2.15;;
26311;SDS011;14019;56.964;24.016;2023-02-28T08:55:20;5.05;;;2.10;;
26311;SDS011;14019;56.964;24.016;2023-02-28T08:58:06;5.57;;;1.75;;
26311;SDS011;14019;56.964;24.016;2023-02-28T09:00:53;4.85;;;2.00;;
26311;SDS011;14019;56.964;24.016;2023-02-28T09:03:40;4.05;;;2.00;;
26311;SDS011;14019;56.964;24.016;2023-02-28T09:06:27;3.88;;;1.90;;
26311;SDS011;14019;56.964;24.016;2023-02-28T09:09:15;3.90;;;1.80;;
26311;SDS011;14019;56.964;24.016;2023-02-28T09:12:01;3.55;;;1.73;;
26311;SDS011;14019;56.964;24.016;2023-02-28T09:14:48;3.97;;;2.03;;
26311;SDS011;14019;56.964;24.016;2023-02-28T09:17:34;3.10;;;1.80;;
26311;SDS011;14019;56.964;24.016;2023-02-28T09:20:20;3.63;;;1.67;;
26311;SDS011;14019;56.964;24.016;2023-02-28T09:23:07;3.78;;;1.55;;
26311;SDS011;14019;56.964;24.016;2023-02-28T09:25:54;3.58;;;1.60;;
26311;SDS011;14019;56.964;24.016;2023-02-28T09:28:41;3.85;;;1.60;;
26311;SDS011;14019;56.964;24.016;2023-02-28T09:31:27;4.20;;;1.67;;
26311;SDS011;14019;56.964;24.016;2023-02-28T09:34:14;4.07;;;1.60;;
26311;SDS011;14019;56.964;24.016;2023-02-28T09:37:01;2.75;;;1.25;;
26311;SDS011;14019;56.964;24.016;2023-02-28T09:39:47;2.53;;;1.30;;
26311;SDS011;14019;56.964;24.016;2023-02-28T09:42:33;3.17;;;1.30;;
26311;SDS011;14019;56.964;24.016;2023-02-28T09:48:20;2.25;;;1.30;;
26311;SDS011;14019;56.964;24.016;2023-02-28T09:51:12;5.75;;;1.45;;
26311;SDS011;14019;56.964;24.016;2023-02-28T09:54:06;3.08;;;1.38;;
26311;SDS011;14019;56.964;24.016;2023-02-28T09:56:57;2.45;;;1.40;;
26311;SDS011;14019;56.964;24.016;2023-02-28T10:06:30;2.15;;;1.20;;
26311;SDS011;14019;56.964;24.016;2023-02-28T10:09:25;1.75;;;1.10;;
26311;SDS011;14019;56.964;24.016;2023-02-28T10:12:16;3.95;;;1.33;;
26311;SDS011;14019;56.964;24.016;2023-02-28T10:15:02;4.85;;;1.20;;
26311;SDS011;14019;56.964;24.016;2023-02-28T10:17:51;2.92;;;1.52;;
26311;SDS011;14019;56.964;24.016;2023-02-28T10:20:53;3.03;;;1.20;;
26311;SDS011;14019;56.964;24.016;2023-02-28T10:23:41;2.45;;;1.00;;
26311;SDS011;14019;56.964;24.016;2023-02-28T10:26:31;2.78;;;1.20;;
26311;SDS011;14019;56.964;24.016;2023-02-28T10:29:18;2.97;;;1.27;;
26311;SDS011;14019;56.964;24.016;2023-02-28T10:32:04;4.95;;;1.23;;
26311;SDS011;14019;56.964;24.016;2023-02-28T10:34:55;3.83;;;1.40;;
26311;SDS011;14019;56.964;24.016;2023-02-28T10:37:46;2.60;;;1.30;;
26311;SDS011;14019;56.964;24.016;2023-02-28T10:40:34;7.20;;;1.48;;
26311;SDS011;14019;56.964;24.016;2023-02-28T10:43:21;3.97;;;1.20;;
26311;SDS011;14019;56.964;24.016;2023-02-28T10:49:03;3.13;;;1.10;;
26311;SDS011;14019;56.964;24.016;2023-02-28T10:51:55;3.55;;;1.27;;
26311;SDS011;14019;56.964;24.016;2023-02-28T10:54:43;4.07;;;1.40;;
26311;SDS011;14019;56.964;24.016;2023-02-28T10:57:30;5.80;;;1.40;;
26311;SDS011;14019;56.964;24.016;2023-02-28T11:00:19;3.22;;;1.30;;
26311;SDS011;14019;56.964;24.016;2023-02-28T11:03:21;3.08;;;1.13;;
26311;SDS011;14019;56.964;24.016;2023-02-28T11:06:17;2.67;;;1.30;;
26311;SDS011;14019;56.964;24.016;2023-02-28T11:09:06;2.95;;;1.40;;
26311;SDS011;14019;56.964;24.016;2023-02-28T11:11:59;2.40;;;1.20;;
26311;SDS011;14019;56.964;24.016;2023-02-28T11:14:55;2.20;;;1.08;;
26311;SDS011;14019;56.964;24.016;2023-02-28T11:17:43;2.45;;;1.17;;
26311;SDS011;14019;56.964;24.016;2023-02-28T11:20:31;2.38;;;1.00;;
26311;SDS011;14019;56.964;24.016;2023-02-28T11:23:18;2.30;;;1.00;;
26311;SDS011;14019;56.964;24.016;2023-02-28T11:26:06;1.88;;;0.90;;
26311;SDS011;14019;56.964;24.016;2023-02-28T11:29:03;4.22;;;1.08;;
26311;SDS011;14019;56.964;24.016;2023-02-28T11:32:00;1.85;;;1.05;;
26311;SDS011;14019;56.964;24.016;2023-02-28T11:34:59;4.45;;;1.15;;
26311;SDS011;14019;56.964;24.016;2023-02-28T11:37:46;2.25;;;1.20;;
26311;SDS011;14019;56.964;24.016;2023-02-28T11:40:39;2.45;;;1.00;;
26311;SDS011;14019;56.964;24.016;2023-02-28T11:46:33;1.98;;;1.10;;
26311;SDS011;14019;56.964;24.016;2023-02-28T11:58:12;2.10;;;0.88;;
26311;SDS011;14019;56.964;24.016;2023-02-28T12:06:47;2.08;;;0.80;;
26311;SDS011;14019;56.964;24.016;2023-02-28T12:27:17;2.33;;;1.05;;
26311;SDS011;14019;56.964;24.016;2023-02-28T12:30:05;0.90;;;0.70;;
26311;SDS011;14019;56.964;24.016;2023-02-28T12:32:56;3.72;;;0.90;;
26311;SDS011;14019;56.964;24.016;2023-02-28T12:35:49;1.60;;;0.80;;
26311;SDS011;14019;56.964;24.016;2023-02-28T12:38:39;2.35;;;0.90;;
26311;SDS011;14019;56.964;24.016;2023-02-28T12:41:31;2.22;;;0.80;;
26311;SDS011;14019;56.964;24.016;2023-02-28T12:47:13;4.18;;;0.80;;
26311;SDS011;14019;56.964;24.016;2023-02-28T12:50:07;2.53;;;0.90;;
26311;SDS011;14019;56.964;24.016;2023-02-28T12:58:53;3.30;;;1.10;;
26311;SDS011;14019;56.964;24.016;2023-02-28T13:10:19;3.00;;;1.10;;
26311;SDS011;14019;56.964;24.016;2023-02-28T13:13:11;2.45;;;1.10;;
26311;SDS011;14019;56.964;24.016;2023-02-28T13:16:03;2.80;;;0.90;;
26311;SDS011;14019;56.964;24.016;2023-02-28T13:18:50;2.63;;;1.05;;
26311;SDS011;14019;56.964;24.016;2023-02-28T13:21:42;5.43;;;1.10;;
26311;SDS011;14019;56.964;24.016;2023-02-28T13:24:38;2.20;;;1.10;;
26311;SDS011;14019;56.964;24.016;2023-02-28T13:33:26;2.15;;;0.90;;
26311;SDS011;14019;56.964;24.016;2023-02-28T13:45:33;2.75;;;0.90;;
26311;SDS011;14019;56.964;24.016;2023-02-28T13:48:24;2.42;;;0.90;;
26311;SDS011;14019;56.964;24.016;2023-02-28T13:51:35;2.28;;;1.20;;
26311;SDS011;14019;56.964;24.016;2023-02-28T14:00:25;1.25;;;0.80;;
26311;SDS011;14019;56.964;24.016;2023-02-28T14:06:22;2.42;;;1.02;;
26311;SDS011;14019;56.964;24.016;2023-02-28T14:09:21;1.98;;;0.80;;
26311;SDS011;14019;56.964;24.016;2023-02-28T14:15:27;3.97;;;0.80;;
26311;SDS011;14019;56.964;24.016;2023-02-28T14:18:22;4.50;;;1.00;;
26311;SDS011;14019;56.964;24.016;2023-02-28T14:21:14;1.60;;;0.70;;
26311;SDS011;14019;56.964;24.016;2023-02-28T14:27:24;0.88;;;0.60;;
26311;SDS011;14019;56.964;24.016;2023-02-28T14:33:04;2.70;;;0.90;;
26311;SDS011;14019;56.964;24.016;2023-02-28T14:36:00;1.40;;;0.80;;
26311;SDS011;14019;56.964;24.016;2023-02-28T14:39:00;1.17;;;0.70;;
26311;SDS011;14019;56.964;24.016;2023-02-28T14:41:50;0.93;;;0.70;;
26311;SDS011;14019;56.964;24.016;2023-02-28T14:44:37;1.85;;;0.63;;
26311;SDS011;14019;56.964;24.016;2023-02-28T14:47:33;1.25;;;0.80;;
26311;SDS011;14019;56.964;24.016;2023-02-28T14:50:22;1.92;;;0.80;;
26311;SDS011;14019;56.964;24.016;2023-02-28T14:53:11;1.27;;;0.57;;
26311;SDS011;14019;56.964;24.016;2023-02-28T14:56:02;2.58;;;0.63;;
26311;SDS011;14019;56.964;24.016;2023-02-28T14:58:54;1.73;;;0.63;;
26311;SDS011;14019;56.964;24.016;2023-02-28T15:01:40;2.53;;;0.85;;
26311;SDS011;14019;56.964;24.016;2023-02-28T15:04:27;3.58;;;0.77;;
26311;SDS011;14019;56.964;24.016;2023-02-28T15:07:14;2.63;;;0.80;;
26311;SDS011;14019;56.964;24.016;2023-02-28T15:12:55;1.92;;;0.80;;
26311;SDS011;14019;56.964;24.016;2023-02-28T15:18:54;1.15;;;0.45;;
26311;SDS011;14019;56.964;24.016;2023-02-28T15:21:42;2.03;;;0.40;;
26311;SDS011;14019;56.964;24.016;2023-02-28T15:30:08;4.30;;;0.70;;
26311;SDS011;14019;56.964;24.016;2023-02-28T15:36:11;1.55;;;0.60;;
26311;SDS011;14019;56.964;24.016;2023-02-28T15:39:00;4.10;;;0.68;;
26311;SDS011;14019;56.964;24.016;2023-02-28T15:42:16;1.40;;;0.77;;
26311;SDS011;14019;56.964;24.016;2023-02-28T15:45:03;1.77;;;0.50;;
26311;SDS011;14019;56.964;24.016;2023-02-28T15:47:51;2.55;;;0.47;;
26311;SDS011;14019;56.964;24.016;2023-02-28T15:50:40;1.92;;;0.50;;
26311;SDS011;14019;56.964;24.016;2023-02-28T15:53:32;1.98;;;0.40;;
26311;SDS011;14019;56.964;24.016;2023-02-28T15:59:07;3.22;;;0.80;;
26311;SDS011;14019;56.964;24.016;2023-02-28T16:07:43;2.58;;;0.65;;
26311;SDS011;14019;56.964;24.016;2023-02-28T16:10:30;2.72;;;1.00;;
26311;SDS011;14019;56.964;24.016;2023-02-28T16:13:17;2.72;;;0.63;;
26311;SDS011;14019;56.964;24.016;2023-02-28T16:16:04;1.80;;;0.50;;
26311;SDS011;14019;56.964;24.016;2023-02-28T16:18:51;2.58;;;0.70;;
26311;SDS011;14019;56.964;24.016;2023-02-28T16:21:40;2.15;;;0.50;;
26311;SDS011;14019;56.964;24.016;2023-02-28T16:24:27;1.98;;;0.50;;
26311;SDS011;14019;56.964;24.016;2023-02-28T16:27:33;4.43;;;0.68;;
26311;SDS011;14019;56.964;24.016;2023-02-28T16:30:23;2.28;;;0.70;;
26311;SDS011;14019;56.964;24.016;2023-02-28T16:33:11;1.30;;;0.57;;
26311;SDS011;14019;56.964;24.016;2023-02-28T16:35:58;2.00;;;0.40;;
26311;SDS011;14019;56.964;24.016;2023-02-28T16:38:45;2.67;;;0.60;;
26311;SDS011;14019;56.964;24.016;2023-02-28T16:41:34;3.58;;;0.60;;
26311;SDS011;14019;56.964;24.016;2023-02-28T16:44:29;2.28;;;0.60;;
26311;SDS011;14019;56.964;24.016;2023-02-28T16:47:16;1.58;;;0.80;;
26311;SDS011;14019;56.964;24.016;2023-02-28T16:50:08;3.65;;;0.70;;
26311;SDS011;14019;56.964;24.016;2023-02-28T16:52:55;1.50;;;0.80;;
26311;SDS011;14019;56.964;24.016;2023-02-28T16:55:41;3.78;;;0.70;;
26311;SDS011;14019;56.964;24.016;2023-02-28T16:58:28;2.92;;;0.80;;
26311;SDS011;14019;56.964;24.016;2023-02-28T17:01:15;2.13;;;0.70;;
26311;SDS011;14019;56.964;24.016;2023-02-28T17:04:08;3.67;;;0.77;;
26311;SDS011;14019;56.964;24.016;2023-02-28T17:06:55;3.35;;;0.77;;
26311;SDS011;14019;56.964;24.016;2023-02-28T17:09:42;3.10;;;0.90;;
26311;SDS011;14019;56.964;24.016;2023-02-28T17:12:31;1.70;;;0.82;;
26311;SDS011;14019;56.964;24.016;2023-02-28T17:15:17;2.42;;;0.85;;
26311;SDS011;14019;56.964;24.016;2023-02-28T17:18:05;2.75;;;0.95;;
26311;SDS011;14019;56.964;24.016;2023-02-28T17:20:52;2.88;;;0.80;;
26311;SDS011;14019;56.964;24.016;2023-02-28T17:23:38;4.57;;;0.68;;
26311;SDS011;14019;56.964;24.016;2023-02-28T17:26:25;1.40;;;0.82;;
26311;SDS011;14019;56.964;24.016;2023-02-28T17:29:14;1.77;;;0.70;;
26311;SDS011;14019;56.964;24.016;2023-02-28T17:32:01;1.80;;;0.77;;
26311;SDS011;14019;56.964;24.016;2023-02-28T17:35:01;1.00;;;0.60;;
26311;SDS011;14019;56.964;24.016;2023-02-28T17:37:47;4.22;;;0.73;;
26311;SDS011;14019;56.964;24.016;2023-02-28T17:40:34;2.10;;;0.80;;
26311;SDS011;14019;56.964;24.016;2023-02-28T17:43:21;4.70;;;0.70;;
26311;SDS011;14019;56.964;24.016;2023-02-28T17:46:14;1.50;;;0.70;;
26311;SDS011;14019;56.964;24.016;2023-02-28T17:49:04;1.58;;;0.68;;
26311;SDS011;14019;56.964;24.016;2023-02-28T17:51:51;1.05;;;0.55;;
26311;SDS011;14019;56.964;24.016;2023-02-28T17:54:37;3.38;;;0.90;;
26311;SDS011;14019;56.964;24.016;2023-02-28T17:57:24;1.75;;;0.60;;
26311;SDS011;14019;56.964;24.016;2023-02-28T18:00:14;3.00;;;0.90;;
26311;SDS011;14019;56.964;24.016;2023-02-28T18:03:03;3.88;;;0.98;;
26311;SDS011;14019;56.964;24.016;2023-02-28T18:05:50;5.88;;;0.98;;
26311;SDS011;14019;56.964;24.016;2023-02-28T18:08:39;2.08;;;0.88;;
26311;SDS011;14019;56.964;24.016;2023-02-28T18:11:27;4.82;;;1.27;;
26311;SDS011;14019;56.964;24.016;2023-02-28T18:14:26;3.20;;;0.90;;
26311;SDS011;14019;56.964;24.016;2023-02-28T18:17:13;2.65;;;0.90;;
26311;SDS011;14019;56.964;24.016;2023-02-28T18:20:00;1.90;;;0.80;;
26311;SDS011;14019;56.964;24.016;2023-02-28T18:22:47;3.45;;;0.80;;
26311;SDS011;14019;56.964;24.016;2023-02-28T18:25:33;2.42;;;0.73;;
26311;SDS011;14019;56.964;24.016;2023-02-28T18:28:20;4.63;;;1.08;;
26311;SDS011;14019;56.964;24.016;2023-02-28T18:31:13;5.00;;;0.90;;
26311;SDS011;14019;56.964;24.016;2023-02-28T18:36:47;1.70;;;0.82;;
26311;SDS011;14019;56.964;24.016;2023-02-28T18:39:38;3.08;;;0.82;;
26311;SDS011;14019;56.964;24.016;2023-02-28T18:42:24;2.03;;;0.60;;
26311;SDS011;14019;56.964;24.016;2023-02-28T18:45:11;2.08;;;0.70;;
26311;SDS011;14019;56.964;24.016;2023-02-28T18:47:57;3.03;;;0.88;;
26311;SDS011;14019;56.964;24.016;2023-02-28T18:50:45;4.22;;;0.77;;
26311;SDS011;14019;56.964;24.016;2023-02-28T18:53:33;2.88;;;0.93;;
26311;SDS011;14019;56.964;24.016;2023-02-28T18:56:21;3.35;;;0.80;;
26311;SDS011;14019;56.964;24.016;2023-02-28T18:59:08;4.38;;;0.90;;
26311;SDS011;14019;56.964;24.016;2023-02-28T19:02:05;4.45;;;1.10;;
26311;SDS011;14019;56.964;24.016;2023-02-28T19:04:55;3.28;;;0.68;;
26311;SDS011;14019;56.964;24.016;2023-02-28T19:07:42;5.03;;;0.95;;
26311;SDS011;14019;56.964;24.016;2023-02-28T19:10:29;3.60;;;0.68;;
26311;SDS011;14019;56.964;24.016;2023-02-28T19:13:16;1.52;;;0.80;;
26311;SDS011;14019;56.964;24.016;2023-02-28T19:16:03;3.17;;;0.70;;
26311;SDS011;14019;56.964;24.016;2023-02-28T19:18:50;3.53;;;0.80;;
26311;SDS011;14019;56.964;24.016;2023-02-28T19:21:37;4.82;;;1.15;;
26311;SDS011;14019;56.964;24.016;2023-02-28T19:27:36;2.30;;;0.60;;
26311;SDS011;14019;56.964;24.016;2023-02-28T19:30:24;4.10;;;0.90;;
26311;SDS011;14019;56.964;24.016;2023-02-28T19:33:10;3.33;;;0.90;;
26311;SDS011;14019;56.964;24.016;2023-02-28T19:36:00;4.93;;;0.90;;
26311;SDS011;14019;56.964;24.016;2023-02-28T19:38:47;2.13;;;0.88;;
26311;SDS011;14019;56.964;24.016;2023-02-28T19:41:35;4.45;;;1.02;;
26311;SDS011;14019;56.964;24.016;2023-02-28T19:44:22;4.35;;;1.02;;
26311;SDS011;14019;56.964;24.016;2023-02-28T19:47:08;2.20;;;0.80;;
26311;SDS011;14019;56.964;24.016;2023-02-28T19:49:55;4.30;;;0.70;;
26311;SDS011;14019;56.964;24.016;2023-02-28T19:52:42;4.32;;;0.80;;